sensor_id;sensor_type;location;lat;lon;timestamp;P1;durP1;ratioP1;P2;durP2;ratioP2
66585;SDS011;53444;45.822;16.092;2023-02-11T00:00:18;50.03;;;23.38;;
66585;SDS011;53444;45.822;16.092;2023-02-11T00:02:46;54.17;;;23.10;;
66585;SDS011;53444;45.822;16.092;2023-02-11T00:05:15;59.47;;;24.73;;
66585;SDS011;53444;45.822;16.092;2023-02-11T00:07:47;55.63;;;23.65;;
66585;SDS011;53444;45.822;16.092;2023-02-11T00:10:14;55.85;;;21.73;;
66585;SDS011;53444;45.822;16.092;2023-02-11T00:12:41;52.13;;;22.90;;
66585;SDS011;53444;45.822;16.092;2023-02-11T00:15:16;51.63;;;23.73;;
66585;SDS011;53444;45.822;16.092;2023-02-11T00:17:43;59.88;;;23.70;;
66585;SDS011;53444;45.822;16.092;2023-02-11T00:20:09;51.05;;;22.73;;
66585;SDS011;53444;45.822;16.092;2023-02-11T00:22:36;61.60;;;25.20;;
66585;SDS011;53444;45.822;16.092;2023-02-11T00:25:05;50.53;;;21.95;;
66585;SDS011;53444;45.822;16.092;2023-02-11T00:27:31;54.93;;;22.20;;
66585;SDS011;53444;45.822;16.092;2023-02-11T00:29:58;59.40;;;24.98;;
66585;SDS011;53444;45.822;16.092;2023-02-11T00:32:26;44.72;;;20.98;;
66585;SDS011;53444;45.822;16.092;2023-02-11T00:34:52;68.35;;;23.42;;
66585;SDS011;53444;45.822;16.092;2023-02-11T00:37:19;64.78;;;23.67;;
66585;SDS011;53444;45.822;16.092;2023-02-11T00:39:46;79.63;;;25.07;;
66585;SDS011;53444;45.822;16.092;2023-02-11T00:42:15;88.75;;;28.23;;
66585;SDS011;53444;45.822;16.092;2023-02-11T00:44:42;76.90;;;24.73;;
66585;SDS011;53444;45.822;16.092;2023-02-11T00:47:09;63.85;;;22.73;;
66585;SDS011;53444;45.822;16.092;2023-02-11T00:49:35;58.72;;;25.38;;
66585;SDS011;53444;45.822;16.092;2023-02-11T00:52:10;85.73;;;26.27;;
66585;SDS011;53444;45.822;16.092;2023-02-11T00:54:45;64.57;;;25.50;;
66585;SDS011;53444;45.822;16.092;2023-02-11T00:57:12;57.17;;;25.08;;
66585;SDS011;53444;45.822;16.092;2023-02-11T00:59:40;65.85;;;24.08;;
66585;SDS011;53444;45.822;16.092;2023-02-11T01:02:06;64.28;;;24.70;;
66585;SDS011;53444;45.822;16.092;2023-02-11T01:04:33;65.43;;;25.43;;
66585;SDS011;53444;45.822;16.092;2023-02-11T01:06:59;63.60;;;23.92;;
66585;SDS011;53444;45.822;16.092;2023-02-11T01:09:26;52.65;;;23.33;;
66585;SDS011;53444;45.822;16.092;2023-02-11T01:11:52;56.70;;;23.92;;
66585;SDS011;53444;45.822;16.092;2023-02-11T01:14:19;52.72;;;23.88;;
66585;SDS011;53444;45.822;16.092;2023-02-11T01:16:47;70.07;;;25.10;;
66585;SDS011;53444;45.822;16.092;2023-02-11T01:19:13;62.33;;;24.73;;
66585;SDS011;53444;45.822;16.092;2023-02-11T01:21:40;56.45;;;25.40;;
66585;SDS011;53444;45.822;16.092;2023-02-11T01:24:07;63.08;;;26.08;;
66585;SDS011;53444;45.822;16.092;2023-02-11T01:26:33;71.13;;;25.58;;
66585;SDS011;53444;45.822;16.092;2023-02-11T01:29:00;65.57;;;29.70;;
66585;SDS011;53444;45.822;16.092;2023-02-11T01:31:26;70.35;;;26.80;;
66585;SDS011;53444;45.822;16.092;2023-02-11T01:33:54;73.60;;;27.60;;
66585;SDS011;53444;45.822;16.092;2023-02-11T01:36:21;71.57;;;27.20;;
66585;SDS011;53444;45.822;16.092;2023-02-11T01:38:47;68.70;;;28.08;;
66585;SDS011;53444;45.822;16.092;2023-02-11T01:41:14;63.70;;;25.83;;
66585;SDS011;53444;45.822;16.092;2023-02-11T01:43:41;60.53;;;23.70;;
66585;SDS011;53444;45.822;16.092;2023-02-11T01:46:16;55.22;;;24.83;;
66585;SDS011;53444;45.822;16.092;2023-02-11T01:48:46;62.45;;;23.73;;
66585;SDS011;53444;45.822;16.092;2023-02-11T01:51:18;54.30;;;23.48;;
66585;SDS011;53444;45.822;16.092;2023-02-11T01:53:47;59.23;;;23.43;;
66585;SDS011;53444;45.822;16.092;2023-02-11T01:56:32;57.97;;;23.50;;
66585;SDS011;53444;45.822;16.092;2023-02-11T01:59:21;60.75;;;23.85;;
66585;SDS011;53444;45.822;16.092;2023-02-11T02:01:54;56.65;;;26.20;;
66585;SDS011;53444;45.822;16.092;2023-02-11T02:04:24;66.38;;;26.70;;
66585;SDS011;53444;45.822;16.092;2023-02-11T02:06:59;63.37;;;27.10;;
66585;SDS011;53444;45.822;16.092;2023-02-11T02:09:29;58.47;;;24.38;;
66585;SDS011;53444;45.822;16.092;2023-02-11T02:12:00;62.05;;;24.00;;
66585;SDS011;53444;45.822;16.092;2023-02-11T02:14:27;55.08;;;22.65;;
66585;SDS011;53444;45.822;16.092;2023-02-11T02:16:53;56.83;;;22.90;;
66585;SDS011;53444;45.822;16.092;2023-02-11T02:25:22;41.50;;;17.85;;
66585;SDS011;53444;45.822;16.092;2023-02-11T02:28:17;49.47;;;17.80;;
66585;SDS011;53444;45.822;16.092;2023-02-11T02:33:59;59.90;;;21.53;;
66585;SDS011;53444;45.822;16.092;2023-02-11T02:36:29;48.08;;;21.05;;
66585;SDS011;53444;45.822;16.092;2023-02-11T02:39:02;47.42;;;20.48;;
66585;SDS011;53444;45.822;16.092;2023-02-11T02:41:31;51.85;;;21.27;;
66585;SDS011;53444;45.822;16.092;2023-02-11T02:44:00;49.95;;;20.52;;
66585;SDS011;53444;45.822;16.092;2023-02-11T02:46:28;48.87;;;19.67;;
66585;SDS011;53444;45.822;16.092;2023-02-11T02:48:56;59.80;;;18.92;;
66585;SDS011;53444;45.822;16.092;2023-02-11T02:51:29;44.28;;;18.75;;
66585;SDS011;53444;45.822;16.092;2023-02-11T02:54:34;46.38;;;16.00;;
66585;SDS011;53444;45.822;16.092;2023-02-11T02:57:13;43.10;;;17.17;;
66585;SDS011;53444;45.822;16.092;2023-02-11T02:59:52;38.53;;;14.53;;
66585;SDS011;53444;45.822;16.092;2023-02-11T03:02:34;33.22;;;16.30;;
66585;SDS011;53444;45.822;16.092;2023-02-11T03:05:05;41.97;;;14.88;;
66585;SDS011;53444;45.822;16.092;2023-02-11T03:07:39;35.15;;;17.13;;
66585;SDS011;53444;45.822;16.092;2023-02-11T03:10:09;39.35;;;16.50;;
66585;SDS011;53444;45.822;16.092;2023-02-11T03:12:39;39.33;;;16.87;;
66585;SDS011;53444;45.822;16.092;2023-02-11T03:15:09;41.25;;;16.58;;
66585;SDS011;53444;45.822;16.092;2023-02-11T03:17:38;37.78;;;17.35;;
66585;SDS011;53444;45.822;16.092;2023-02-11T03:20:09;40.20;;;16.75;;
66585;SDS011;53444;45.822;16.092;2023-02-11T03:22:40;39.97;;;18.95;;
66585;SDS011;53444;45.822;16.092;2023-02-11T03:25:10;52.00;;;18.33;;
66585;SDS011;53444;45.822;16.092;2023-02-11T03:27:37;32.20;;;15.93;;
66585;SDS011;53444;45.822;16.092;2023-02-11T03:30:10;39.33;;;16.65;;
66585;SDS011;53444;45.822;16.092;2023-02-11T03:32:42;46.30;;;17.50;;
66585;SDS011;53444;45.822;16.092;2023-02-11T03:35:16;41.83;;;16.90;;
66585;SDS011;53444;45.822;16.092;2023-02-11T03:37:49;36.57;;;17.90;;
66585;SDS011;53444;45.822;16.092;2023-02-11T03:40:18;47.33;;;18.17;;
66585;SDS011;53444;45.822;16.092;2023-02-11T03:42:47;54.75;;;19.83;;
66585;SDS011;53444;45.822;16.092;2023-02-11T03:45:16;53.13;;;17.42;;
66585;SDS011;53444;45.822;16.092;2023-02-11T03:47:45;41.88;;;18.05;;
66585;SDS011;53444;45.822;16.092;2023-02-11T03:50:15;34.87;;;13.60;;
66585;SDS011;53444;45.822;16.092;2023-02-11T03:52:43;30.40;;;15.13;;
66585;SDS011;53444;45.822;16.092;2023-02-11T03:55:14;33.10;;;13.90;;
66585;SDS011;53444;45.822;16.092;2023-02-11T03:57:43;25.45;;;11.82;;
66585;SDS011;53444;45.822;16.092;2023-02-11T04:00:10;27.50;;;12.20;;
66585;SDS011;53444;45.822;16.092;2023-02-11T04:02:38;35.37;;;12.90;;
66585;SDS011;53444;45.822;16.092;2023-02-11T04:05:06;30.90;;;12.43;;
66585;SDS011;53444;45.822;16.092;2023-02-11T04:07:34;22.83;;;13.10;;
66585;SDS011;53444;45.822;16.092;2023-02-11T04:10:00;25.60;;;12.63;;
66585;SDS011;53444;45.822;16.092;2023-02-11T04:12:28;29.38;;;13.25;;
66585;SDS011;53444;45.822;16.092;2023-02-11T04:14:55;32.70;;;14.10;;
66585;SDS011;53444;45.822;16.092;2023-02-11T04:17:22;40.30;;;15.20;;
66585;SDS011;53444;45.822;16.092;2023-02-11T04:19:48;31.05;;;13.88;;
66585;SDS011;53444;45.822;16.092;2023-02-11T04:22:15;39.55;;;16.60;;
66585;SDS011;53444;45.822;16.092;2023-02-11T04:24:41;38.90;;;18.20;;
66585;SDS011;53444;45.822;16.092;2023-02-11T04:27:09;31.40;;;15.33;;
66585;SDS011;53444;45.822;16.092;2023-02-11T04:29:37;41.22;;;16.75;;
66585;SDS011;53444;45.822;16.092;2023-02-11T04:32:03;44.80;;;18.23;;
66585;SDS011;53444;45.822;16.092;2023-02-11T04:34:30;34.00;;;14.65;;
66585;SDS011;53444;45.822;16.092;2023-02-11T04:36:57;39.03;;;15.18;;
66585;SDS011;53444;45.822;16.092;2023-02-11T04:39:23;35.40;;;14.97;;
66585;SDS011;53444;45.822;16.092;2023-02-11T04:41:50;30.80;;;14.25;;
66585;SDS011;53444;45.822;16.092;2023-02-11T04:44:16;36.30;;;15.38;;
66585;SDS011;53444;45.822;16.092;2023-02-11T04:46:44;28.40;;;13.50;;
66585;SDS011;53444;45.822;16.092;2023-02-11T04:49:11;28.40;;;13.52;;
66585;SDS011;53444;45.822;16.092;2023-02-11T04:51:38;37.87;;;14.67;;
66585;SDS011;53444;45.822;16.092;2023-02-11T04:54:05;28.30;;;13.68;;
66585;SDS011;53444;45.822;16.092;2023-02-11T04:56:32;35.78;;;14.35;;
66585;SDS011;53444;45.822;16.092;2023-02-11T04:58:59;42.47;;;16.98;;
66585;SDS011;53444;45.822;16.092;2023-02-11T05:01:25;38.88;;;17.33;;
66585;SDS011;53444;45.822;16.092;2023-02-11T05:03:54;51.70;;;17.50;;
66585;SDS011;53444;45.822;16.092;2023-02-11T05:06:20;39.88;;;16.25;;
66585;SDS011;53444;45.822;16.092;2023-02-11T05:08:47;44.78;;;18.27;;
66585;SDS011;53444;45.822;16.092;2023-02-11T05:11:14;38.70;;;17.33;;
66585;SDS011;53444;45.822;16.092;2023-02-11T05:13:42;33.35;;;15.45;;
66585;SDS011;53444;45.822;16.092;2023-02-11T05:16:09;32.20;;;15.97;;
66585;SDS011;53444;45.822;16.092;2023-02-11T05:18:37;40.30;;;17.10;;
66585;SDS011;53444;45.822;16.092;2023-02-11T05:21:06;40.00;;;17.40;;
66585;SDS011;53444;45.822;16.092;2023-02-11T05:23:33;45.58;;;17.65;;
66585;SDS011;53444;45.822;16.092;2023-02-11T05:26:00;44.55;;;18.83;;
66585;SDS011;53444;45.822;16.092;2023-02-11T05:28:28;43.90;;;18.00;;
66585;SDS011;53444;45.822;16.092;2023-02-11T05:30:54;47.55;;;17.90;;
66585;SDS011;53444;45.822;16.092;2023-02-11T05:33:21;40.20;;;16.65;;
66585;SDS011;53444;45.822;16.092;2023-02-11T05:35:48;35.58;;;16.40;;
66585;SDS011;53444;45.822;16.092;2023-02-11T05:38:16;35.72;;;15.77;;
66585;SDS011;53444;45.822;16.092;2023-02-11T05:40:43;34.97;;;15.77;;
66585;SDS011;53444;45.822;16.092;2023-02-11T05:43:09;42.05;;;17.98;;
66585;SDS011;53444;45.822;16.092;2023-02-11T05:45:36;48.67;;;17.55;;
66585;SDS011;53444;45.822;16.092;2023-02-11T05:48:02;32.13;;;13.45;;
66585;SDS011;53444;45.822;16.092;2023-02-11T05:50:32;39.78;;;15.13;;
66585;SDS011;53444;45.822;16.092;2023-02-11T05:52:58;30.17;;;14.67;;
66585;SDS011;53444;45.822;16.092;2023-02-11T05:55:26;35.50;;;14.52;;
66585;SDS011;53444;45.822;16.092;2023-02-11T05:57:53;33.20;;;15.52;;
66585;SDS011;53444;45.822;16.092;2023-02-11T06:00:23;45.08;;;15.32;;
66585;SDS011;53444;45.822;16.092;2023-02-11T06:02:50;26.80;;;13.95;;
66585;SDS011;53444;45.822;16.092;2023-02-11T06:05:16;30.87;;;15.27;;
66585;SDS011;53444;45.822;16.092;2023-02-11T06:07:44;34.75;;;16.33;;
66585;SDS011;53444;45.822;16.092;2023-02-11T06:10:10;38.80;;;16.83;;
66585;SDS011;53444;45.822;16.092;2023-02-11T06:12:39;36.92;;;16.17;;
66585;SDS011;53444;45.822;16.092;2023-02-11T06:15:08;42.20;;;16.67;;
66585;SDS011;53444;45.822;16.092;2023-02-11T06:17:36;32.83;;;14.37;;
66585;SDS011;53444;45.822;16.092;2023-02-11T06:20:03;42.30;;;17.92;;
66585;SDS011;53444;45.822;16.092;2023-02-11T06:22:31;42.08;;;16.02;;
66585;SDS011;53444;45.822;16.092;2023-02-11T06:24:57;34.53;;;15.93;;
66585;SDS011;53444;45.822;16.092;2023-02-11T06:27:24;39.85;;;17.98;;
66585;SDS011;53444;45.822;16.092;2023-02-11T06:29:52;36.13;;;16.63;;
66585;SDS011;53444;45.822;16.092;2023-02-11T06:32:19;30.88;;;16.23;;
66585;SDS011;53444;45.822;16.092;2023-02-11T06:34:46;38.47;;;18.42;;
66585;SDS011;53444;45.822;16.092;2023-02-11T06:37:15;46.42;;;19.98;;
66585;SDS011;53444;45.822;16.092;2023-02-11T06:39:45;50.55;;;20.45;;
66585;SDS011;53444;45.822;16.092;2023-02-11T06:42:11;52.53;;;21.40;;
66585;SDS011;53444;45.822;16.092;2023-02-11T06:44:38;41.38;;;19.02;;
66585;SDS011;53444;45.822;16.092;2023-02-11T06:47:06;51.88;;;20.05;;
66585;SDS011;53444;45.822;16.092;2023-02-11T06:49:32;65.50;;;22.38;;
66585;SDS011;53444;45.822;16.092;2023-02-11T06:51:59;53.42;;;21.58;;
66585;SDS011;53444;45.822;16.092;2023-02-11T06:54:26;93.63;;;32.83;;
66585;SDS011;53444;45.822;16.092;2023-02-11T06:56:52;84.72;;;35.60;;
66585;SDS011;53444;45.822;16.092;2023-02-11T06:59:19;68.60;;;29.23;;
66585;SDS011;53444;45.822;16.092;2023-02-11T07:01:45;55.88;;;22.85;;
66585;SDS011;53444;45.822;16.092;2023-02-11T07:04:14;52.55;;;23.27;;
66585;SDS011;53444;45.822;16.092;2023-02-11T07:06:40;44.07;;;21.37;;
66585;SDS011;53444;45.822;16.092;2023-02-11T07:09:07;50.20;;;21.85;;
66585;SDS011;53444;45.822;16.092;2023-02-11T07:11:34;47.13;;;21.48;;
66585;SDS011;53444;45.822;16.092;2023-02-11T07:14:02;46.72;;;22.30;;
66585;SDS011;53444;45.822;16.092;2023-02-11T07:16:30;53.85;;;21.92;;
66585;SDS011;53444;45.822;16.092;2023-02-11T07:18:57;55.67;;;24.00;;
66585;SDS011;53444;45.822;16.092;2023-02-11T07:21:25;61.05;;;23.55;;
66585;SDS011;53444;45.822;16.092;2023-02-11T07:23:52;52.60;;;24.02;;
66585;SDS011;53444;45.822;16.092;2023-02-11T07:26:20;56.95;;;26.40;;
66585;SDS011;53444;45.822;16.092;2023-02-11T07:28:48;40.42;;;19.77;;
66585;SDS011;53444;45.822;16.092;2023-02-11T07:31:16;58.27;;;22.77;;
66585;SDS011;53444;45.822;16.092;2023-02-11T07:33:44;47.10;;;20.20;;
66585;SDS011;53444;45.822;16.092;2023-02-11T07:36:11;69.72;;;24.67;;
66585;SDS011;53444;45.822;16.092;2023-02-11T07:38:40;68.18;;;24.13;;
66585;SDS011;53444;45.822;16.092;2023-02-11T07:41:08;70.28;;;26.65;;
66585;SDS011;53444;45.822;16.092;2023-02-11T07:43:36;54.53;;;24.33;;
66585;SDS011;53444;45.822;16.092;2023-02-11T07:46:04;52.70;;;23.70;;
66585;SDS011;53444;45.822;16.092;2023-02-11T07:48:31;69.90;;;25.90;;
66585;SDS011;53444;45.822;16.092;2023-02-11T07:51:03;61.33;;;27.73;;
66585;SDS011;53444;45.822;16.092;2023-02-11T07:53:31;67.88;;;25.98;;
66585;SDS011;53444;45.822;16.092;2023-02-11T07:55:59;67.03;;;26.03;;
66585;SDS011;53444;45.822;16.092;2023-02-11T07:58:25;49.05;;;21.80;;
66585;SDS011;53444;45.822;16.092;2023-02-11T08:00:52;55.08;;;22.58;;
66585;SDS011;53444;45.822;16.092;2023-02-11T08:03:19;64.25;;;26.42;;
66585;SDS011;53444;45.822;16.092;2023-02-11T08:05:45;53.88;;;24.20;;
66585;SDS011;53444;45.822;16.092;2023-02-11T08:08:12;59.13;;;25.80;;
66585;SDS011;53444;45.822;16.092;2023-02-11T08:10:38;50.38;;;23.52;;
66585;SDS011;53444;45.822;16.092;2023-02-11T08:13:06;64.72;;;26.35;;
66585;SDS011;53444;45.822;16.092;2023-02-11T08:15:33;62.42;;;27.00;;
66585;SDS011;53444;45.822;16.092;2023-02-11T08:18:00;63.05;;;26.42;;
66585;SDS011;53444;45.822;16.092;2023-02-11T08:20:26;58.93;;;26.57;;
66585;SDS011;53444;45.822;16.092;2023-02-11T08:22:53;63.22;;;26.42;;
66585;SDS011;53444;45.822;16.092;2023-02-11T08:25:19;63.65;;;27.95;;
66585;SDS011;53444;45.822;16.092;2023-02-11T08:27:46;71.75;;;31.80;;
66585;SDS011;53444;45.822;16.092;2023-02-11T08:30:14;68.80;;;26.77;;
66585;SDS011;53444;45.822;16.092;2023-02-11T08:32:40;65.03;;;27.33;;
66585;SDS011;53444;45.822;16.092;2023-02-11T08:35:07;68.95;;;29.60;;
66585;SDS011;53444;45.822;16.092;2023-02-11T08:37:36;73.78;;;31.23;;
66585;SDS011;53444;45.822;16.092;2023-02-11T08:40:03;77.60;;;29.77;;
66585;SDS011;53444;45.822;16.092;2023-02-11T08:42:31;72.72;;;30.65;;
66585;SDS011;53444;45.822;16.092;2023-02-11T08:44:57;69.57;;;30.07;;
66585;SDS011;53444;45.822;16.092;2023-02-11T08:47:25;71.22;;;30.55;;
66585;SDS011;53444;45.822;16.092;2023-02-11T08:49:52;72.28;;;30.73;;
66585;SDS011;53444;45.822;16.092;2023-02-11T08:52:18;86.32;;;33.85;;
66585;SDS011;53444;45.822;16.092;2023-02-11T08:54:45;79.85;;;35.60;;
66585;SDS011;53444;45.822;16.092;2023-02-11T08:57:12;80.23;;;32.47;;
66585;SDS011;53444;45.822;16.092;2023-02-11T08:59:38;82.28;;;33.40;;
66585;SDS011;53444;45.822;16.092;2023-02-11T09:02:05;87.15;;;34.85;;
66585;SDS011;53444;45.822;16.092;2023-02-11T09:04:33;83.53;;;35.63;;
66585;SDS011;53444;45.822;16.092;2023-02-11T09:07:01;72.03;;;31.63;;
66585;SDS011;53444;45.822;16.092;2023-02-11T09:09:27;96.37;;;37.63;;
66585;SDS011;53444;45.822;16.092;2023-02-11T09:11:54;94.32;;;38.35;;
66585;SDS011;53444;45.822;16.092;2023-02-11T09:14:22;100.75;;;38.42;;
66585;SDS011;53444;45.822;16.092;2023-02-11T09:16:49;100.25;;;37.72;;
66585;SDS011;53444;45.822;16.092;2023-02-11T09:19:17;95.22;;;38.95;;
66585;SDS011;53444;45.822;16.092;2023-02-11T09:21:45;87.07;;;37.93;;
66585;SDS011;53444;45.822;16.092;2023-02-11T09:24:11;90.78;;;37.63;;
66585;SDS011;53444;45.822;16.092;2023-02-11T09:26:40;77.72;;;31.40;;
66585;SDS011;53444;45.822;16.092;2023-02-11T09:29:07;91.25;;;37.80;;
66585;SDS011;53444;45.822;16.092;2023-02-11T09:31:34;77.20;;;32.28;;
66585;SDS011;53444;45.822;16.092;2023-02-11T09:34:02;78.13;;;31.53;;
66585;SDS011;53444;45.822;16.092;2023-02-11T09:36:31;69.18;;;29.90;;
66585;SDS011;53444;45.822;16.092;2023-02-11T09:39:00;63.90;;;27.60;;
66585;SDS011;53444;45.822;16.092;2023-02-11T09:41:32;64.45;;;29.13;;
66585;SDS011;53444;45.822;16.092;2023-02-11T09:44:05;61.50;;;23.45;;
66585;SDS011;53444;45.822;16.092;2023-02-11T09:46:34;52.43;;;21.93;;
66585;SDS011;53444;45.822;16.092;2023-02-11T09:49:04;53.30;;;23.85;;
66585;SDS011;53444;45.822;16.092;2023-02-11T09:51:35;50.88;;;22.63;;
66585;SDS011;53444;45.822;16.092;2023-02-11T09:54:10;53.05;;;23.27;;
66585;SDS011;53444;45.822;16.092;2023-02-11T09:56:42;37.72;;;17.75;;
66585;SDS011;53444;45.822;16.092;2023-02-11T09:59:09;33.20;;;15.20;;
66585;SDS011;53444;45.822;16.092;2023-02-11T10:01:39;38.72;;;18.35;;
66585;SDS011;53444;45.822;16.092;2023-02-11T10:04:12;36.53;;;17.27;;
66585;SDS011;53444;45.822;16.092;2023-02-11T10:06:45;27.10;;;13.73;;
66585;SDS011;53444;45.822;16.092;2023-02-11T10:09:23;27.95;;;13.20;;
66585;SDS011;53444;45.822;16.092;2023-02-11T10:11:59;30.83;;;14.20;;
66585;SDS011;53444;45.822;16.092;2023-02-11T10:14:44;36.30;;;16.38;;
66585;SDS011;53444;45.822;16.092;2023-02-11T10:17:24;29.27;;;13.88;;
66585;SDS011;53444;45.822;16.092;2023-02-11T10:20:07;31.48;;;15.38;;
66585;SDS011;53444;45.822;16.092;2023-02-11T10:22:44;29.63;;;12.90;;
66585;SDS011;53444;45.822;16.092;2023-02-11T10:25:19;33.73;;;16.20;;
66585;SDS011;53444;45.822;16.092;2023-02-11T10:27:47;31.98;;;14.57;;
66585;SDS011;53444;45.822;16.092;2023-02-11T10:30:19;38.17;;;17.10;;
66585;SDS011;53444;45.822;16.092;2023-02-11T10:32:53;33.75;;;15.93;;
66585;SDS011;53444;45.822;16.092;2023-02-11T10:35:24;37.80;;;16.40;;
66585;SDS011;53444;45.822;16.092;2023-02-11T10:37:52;30.40;;;14.23;;
66585;SDS011;53444;45.822;16.092;2023-02-11T10:40:21;26.23;;;10.50;;
66585;SDS011;53444;45.822;16.092;2023-02-11T10:42:51;20.20;;;9.82;;
66585;SDS011;53444;45.822;16.092;2023-02-11T10:45:22;26.67;;;11.43;;
66585;SDS011;53444;45.822;16.092;2023-02-11T10:47:53;18.60;;;7.82;;
66585;SDS011;53444;45.822;16.092;2023-02-11T10:50:23;26.03;;;10.13;;
66585;SDS011;53444;45.822;16.092;2023-02-11T10:52:52;22.02;;;9.45;;
66585;SDS011;53444;45.822;16.092;2023-02-11T10:55:37;21.65;;;10.02;;
66585;SDS011;53444;45.822;16.092;2023-02-11T10:58:04;23.55;;;11.02;;
66585;SDS011;53444;45.822;16.092;2023-02-11T11:00:33;23.55;;;10.30;;
66585;SDS011;53444;45.822;16.092;2023-02-11T11:03:03;23.43;;;10.50;;
66585;SDS011;53444;45.822;16.092;2023-02-11T11:05:33;24.35;;;10.48;;
66585;SDS011;53444;45.822;16.092;2023-02-11T11:08:01;17.60;;;8.55;;
66585;SDS011;53444;45.822;16.092;2023-02-11T11:10:33;25.23;;;10.50;;
66585;SDS011;53444;45.822;16.092;2023-02-11T11:13:11;23.52;;;11.63;;
66585;SDS011;53444;45.822;16.092;2023-02-11T11:15:51;17.70;;;9.03;;
66585;SDS011;53444;45.822;16.092;2023-02-11T11:18:33;17.33;;;8.45;;
66585;SDS011;53444;45.822;16.092;2023-02-11T11:21:00;21.65;;;9.55;;
66585;SDS011;53444;45.822;16.092;2023-02-11T11:23:30;24.05;;;10.30;;
66585;SDS011;53444;45.822;16.092;2023-02-11T11:25:59;18.25;;;8.40;;
66585;SDS011;53444;45.822;16.092;2023-02-11T11:28:30;16.47;;;8.63;;
66585;SDS011;53444;45.822;16.092;2023-02-11T11:31:03;22.65;;;9.57;;
66585;SDS011;53444;45.822;16.092;2023-02-11T11:33:32;21.77;;;8.07;;
66585;SDS011;53444;45.822;16.092;2023-02-11T11:36:02;22.33;;;8.93;;
66585;SDS011;53444;45.822;16.092;2023-02-11T11:38:31;21.73;;;9.98;;
66585;SDS011;53444;45.822;16.092;2023-02-11T11:43:59;25.27;;;11.02;;
66585;SDS011;53444;45.822;16.092;2023-02-11T11:46:28;23.60;;;9.88;;
66585;SDS011;53444;45.822;16.092;2023-02-11T11:49:09;21.85;;;10.20;;
66585;SDS011;53444;45.822;16.092;2023-02-11T11:51:44;20.25;;;9.02;;
66585;SDS011;53444;45.822;16.092;2023-02-11T11:54:16;18.53;;;8.93;;
66585;SDS011;53444;45.822;16.092;2023-02-11T11:56:46;19.63;;;9.52;;
66585;SDS011;53444;45.822;16.092;2023-02-11T11:59:19;26.40;;;10.05;;
66585;SDS011;53444;45.822;16.092;2023-02-11T12:01:50;18.15;;;9.38;;
66585;SDS011;53444;45.822;16.092;2023-02-11T12:04:31;20.95;;;9.32;;
66585;SDS011;53444;45.822;16.092;2023-02-11T12:07:15;23.07;;;9.77;;
66585;SDS011;53444;45.822;16.092;2023-02-11T12:09:51;20.25;;;10.07;;
66585;SDS011;53444;45.822;16.092;2023-02-11T12:12:30;16.33;;;8.35;;
66585;SDS011;53444;45.822;16.092;2023-02-11T12:15:10;21.35;;;8.55;;
66585;SDS011;53444;45.822;16.092;2023-02-11T12:17:51;23.77;;;9.52;;
66585;SDS011;53444;45.822;16.092;2023-02-11T12:20:31;26.70;;;11.50;;
66585;SDS011;53444;45.822;16.092;2023-02-11T12:23:14;23.60;;;10.25;;
66585;SDS011;53444;45.822;16.092;2023-02-11T12:25:55;19.55;;;9.05;;
66585;SDS011;53444;45.822;16.092;2023-02-11T12:28:28;20.25;;;9.13;;
66585;SDS011;53444;45.822;16.092;2023-02-11T12:31:08;23.33;;;9.23;;
66585;SDS011;53444;45.822;16.092;2023-02-11T12:33:46;21.67;;;10.67;;
66585;SDS011;53444;45.822;16.092;2023-02-11T12:36:42;21.20;;;10.18;;
66585;SDS011;53444;45.822;16.092;2023-02-11T12:39:22;21.52;;;9.90;;
66585;SDS011;53444;45.822;16.092;2023-02-11T12:45:08;25.08;;;10.93;;
66585;SDS011;53444;45.822;16.092;2023-02-11T12:47:48;22.20;;;9.83;;
66585;SDS011;53444;45.822;16.092;2023-02-11T12:50:24;23.75;;;8.88;;
66585;SDS011;53444;45.822;16.092;2023-02-11T12:52:59;20.33;;;10.15;;
66585;SDS011;53444;45.822;16.092;2023-02-11T12:55:37;20.73;;;9.98;;
66585;SDS011;53444;45.822;16.092;2023-02-11T12:58:09;25.98;;;11.23;;
66585;SDS011;53444;45.822;16.092;2023-02-11T13:00:43;23.30;;;11.23;;
66585;SDS011;53444;45.822;16.092;2023-02-11T13:03:30;25.60;;;10.77;;
66585;SDS011;53444;45.822;16.092;2023-02-11T13:06:03;21.63;;;9.07;;
66585;SDS011;53444;45.822;16.092;2023-02-11T13:08:34;18.95;;;8.85;;
66585;SDS011;53444;45.822;16.092;2023-02-11T13:11:06;22.98;;;10.35;;
66585;SDS011;53444;45.822;16.092;2023-02-11T13:13:41;27.90;;;11.43;;
66585;SDS011;53444;45.822;16.092;2023-02-11T13:16:16;25.00;;;11.68;;
66585;SDS011;53444;45.822;16.092;2023-02-11T13:18:53;24.33;;;11.02;;
66585;SDS011;53444;45.822;16.092;2023-02-11T13:21:28;23.73;;;10.43;;
66585;SDS011;53444;45.822;16.092;2023-02-11T13:24:05;20.27;;;9.43;;
66585;SDS011;53444;45.822;16.092;2023-02-11T13:26:40;19.80;;;9.87;;
66585;SDS011;53444;45.822;16.092;2023-02-11T13:29:14;23.42;;;10.82;;
66585;SDS011;53444;45.822;16.092;2023-02-11T13:31:52;23.92;;;11.95;;
66585;SDS011;53444;45.822;16.092;2023-02-11T13:34:23;25.90;;;10.65;;
66585;SDS011;53444;45.822;16.092;2023-02-11T13:36:54;22.50;;;10.43;;
66585;SDS011;53444;45.822;16.092;2023-02-11T13:39:21;25.00;;;12.07;;
66585;SDS011;53444;45.822;16.092;2023-02-11T13:41:48;23.70;;;9.32;;
66585;SDS011;53444;45.822;16.092;2023-02-11T13:44:22;24.55;;;9.50;;
66585;SDS011;53444;45.822;16.092;2023-02-11T13:46:52;22.85;;;10.25;;
66585;SDS011;53444;45.822;16.092;2023-02-11T13:49:26;24.10;;;10.43;;
66585;SDS011;53444;45.822;16.092;2023-02-11T13:51:56;19.57;;;9.57;;
66585;SDS011;53444;45.822;16.092;2023-02-11T13:54:27;24.83;;;10.68;;
66585;SDS011;53444;45.822;16.092;2023-02-11T13:59:57;22.60;;;10.55;;
66585;SDS011;53444;45.822;16.092;2023-02-11T14:02:25;20.92;;;9.57;;
66585;SDS011;53444;45.822;16.092;2023-02-11T14:05:21;24.97;;;11.30;;
66585;SDS011;53444;45.822;16.092;2023-02-11T14:08:13;26.95;;;10.18;;
66585;SDS011;53444;45.822;16.092;2023-02-11T14:11:02;23.30;;;10.88;;
66585;SDS011;53444;45.822;16.092;2023-02-11T14:13:32;25.25;;;11.23;;
66585;SDS011;53444;45.822;16.092;2023-02-11T14:16:03;21.00;;;9.32;;
66585;SDS011;53444;45.822;16.092;2023-02-11T14:18:35;22.38;;;10.48;;
66585;SDS011;53444;45.822;16.092;2023-02-11T14:21:19;21.45;;;11.30;;
66585;SDS011;53444;45.822;16.092;2023-02-11T14:23:48;22.52;;;10.25;;
66585;SDS011;53444;45.822;16.092;2023-02-11T14:26:24;23.00;;;10.45;;
66585;SDS011;53444;45.822;16.092;2023-02-11T14:28:59;20.92;;;10.57;;
66585;SDS011;53444;45.822;16.092;2023-02-11T14:31:33;20.58;;;10.35;;
66585;SDS011;53444;45.822;16.092;2023-02-11T14:37:08;19.33;;;10.02;;
66585;SDS011;53444;45.822;16.092;2023-02-11T14:39:46;27.27;;;12.43;;
66585;SDS011;53444;45.822;16.092;2023-02-11T14:42:21;25.65;;;11.95;;
66585;SDS011;53444;45.822;16.092;2023-02-11T14:44:51;23.58;;;11.23;;
66585;SDS011;53444;45.822;16.092;2023-02-11T14:47:22;21.67;;;10.55;;
66585;SDS011;53444;45.822;16.092;2023-02-11T14:49:54;21.08;;;11.02;;